sensor_id;sensor_type;location;lat;lon;timestamp;P1;durP1;ratioP1;P2;durP2;ratioP2
16352;SDS011;8286;51.274;9.542;2023-08-07T00:00:18;3.67;;;1.20;;
16352;SDS011;8286;51.274;9.542;2023-08-07T00:02:44;1.53;;;1.10;;
16352;SDS011;8286;51.274;9.542;2023-08-07T00:05:11;1.20;;;1.10;;
16352;SDS011;8286;51.274;9.542;2023-08-07T00:07:39;1.57;;;1.33;;
16352;SDS011;8286;51.274;9.542;2023-08-07T00:10:06;1.37;;;1.27;;
16352;SDS011;8286;51.274;9.542;2023-08-07T00:12:33;4.50;;;1.33;;
16352;SDS011;8286;51.274;9.542;2023-08-07T00:14:59;1.20;;;1.10;;
16352;SDS011;8286;51.274;9.542;2023-08-07T00:17:26;2.33;;;1.03;;
16352;SDS011;8286;51.274;9.542;2023-08-07T00:19:53;3.60;;;0.87;;
16352;SDS011;8286;51.274;9.542;2023-08-07T00:22:19;2.57;;;0.80;;
16352;SDS011;8286;51.274;9.542;2023-08-07T00:24:47;3.43;;;1.07;;
16352;SDS011;8286;51.274;9.542;2023-08-07T00:27:14;1.37;;;1.17;;
16352;SDS011;8286;51.274;9.542;2023-08-07T00:29:40;0.90;;;0.90;;
16352;SDS011;8286;51.274;9.542;2023-08-07T00:32:07;2.53;;;1.00;;
16352;SDS011;8286;51.274;9.542;2023-08-07T00:34:34;0.90;;;0.90;;
16352;SDS011;8286;51.274;9.542;2023-08-07T00:37:00;3.40;;;1.23;;
16352;SDS011;8286;51.274;9.542;2023-08-07T00:39:27;1.73;;;0.80;;
16352;SDS011;8286;51.274;9.542;2023-08-07T00:41:54;0.90;;;0.90;;
16352;SDS011;8286;51.274;9.542;2023-08-07T00:44:21;1.30;;;1.20;;
16352;SDS011;8286;51.274;9.542;2023-08-07T00:46:48;2.10;;;0.90;;
16352;SDS011;8286;51.274;9.542;2023-08-07T00:49:15;1.43;;;1.10;;
16352;SDS011;8286;51.274;9.542;2023-08-07T00:51:43;2.33;;;1.10;;
16352;SDS011;8286;51.274;9.542;2023-08-07T00:54:11;2.10;;;1.90;;
16352;SDS011;8286;51.274;9.542;2023-08-07T00:56:38;2.53;;;1.10;;
16352;SDS011;8286;51.274;9.542;2023-08-07T00:59:06;1.10;;;1.10;;
16352;SDS011;8286;51.274;9.542;2023-08-07T01:01:33;1.07;;;1.07;;
16352;SDS011;8286;51.274;9.542;2023-08-07T01:03:59;2.97;;;1.10;;
16352;SDS011;8286;51.274;9.542;2023-08-07T01:06:26;3.07;;;1.60;;
16352;SDS011;8286;51.274;9.542;2023-08-07T01:08:52;1.20;;;1.10;;
16352;SDS011;8286;51.274;9.542;2023-08-07T01:11:21;1.20;;;1.10;;
16352;SDS011;8286;51.274;9.542;2023-08-07T01:13:51;1.20;;;0.97;;
16352;SDS011;8286;51.274;9.542;2023-08-07T01:16:26;1.40;;;1.30;;
16352;SDS011;8286;51.274;9.542;2023-08-07T01:18:55;1.17;;;1.03;;
16352;SDS011;8286;51.274;9.542;2023-08-07T01:21:23;1.13;;;1.13;;
16352;SDS011;8286;51.274;9.542;2023-08-07T01:23:51;1.10;;;1.10;;
16352;SDS011;8286;51.274;9.542;2023-08-07T01:26:18;2.17;;;1.07;;
16352;SDS011;8286;51.274;9.542;2023-08-07T01:28:46;5.63;;;1.20;;
16352;SDS011;8286;51.274;9.542;2023-08-07T01:31:16;1.80;;;1.10;;
16352;SDS011;8286;51.274;9.542;2023-08-07T01:33:47;0.80;;;0.80;;
16352;SDS011;8286;51.274;9.542;2023-08-07T01:36:17;1.17;;;1.17;;
16352;SDS011;8286;51.274;9.542;2023-08-07T01:38:44;1.10;;;1.00;;
16352;SDS011;8286;51.274;9.542;2023-08-07T01:41:12;0.90;;;0.90;;
16352;SDS011;8286;51.274;9.542;2023-08-07T01:43:38;3.53;;;1.00;;
16352;SDS011;8286;51.274;9.542;2023-08-07T01:46:05;0.80;;;0.80;;
16352;SDS011;8286;51.274;9.542;2023-08-07T01:48:32;0.90;;;0.90;;
16352;SDS011;8286;51.274;9.542;2023-08-07T01:50:58;1.00;;;1.00;;
16352;SDS011;8286;51.274;9.542;2023-08-07T01:53:25;0.80;;;0.80;;
16352;SDS011;8286;51.274;9.542;2023-08-07T01:55:51;0.83;;;0.83;;
16352;SDS011;8286;51.274;9.542;2023-08-07T01:58:19;0.90;;;0.90;;
16352;SDS011;8286;51.274;9.542;2023-08-07T02:00:46;0.93;;;0.80;;
16352;SDS011;8286;51.274;9.542;2023-08-07T02:03:12;1.03;;;0.70;;
16352;SDS011;8286;51.274;9.542;2023-08-07T02:05:39;1.10;;;1.10;;
16352;SDS011;8286;51.274;9.542;2023-08-07T02:08:05;0.90;;;0.90;;
16352;SDS011;8286;51.274;9.542;2023-08-07T02:10:32;0.60;;;0.60;;
16352;SDS011;8286;51.274;9.542;2023-08-07T02:12:59;2.30;;;0.90;;
16352;SDS011;8286;51.274;9.542;2023-08-07T02:15:27;1.93;;;1.83;;
16352;SDS011;8286;51.274;9.542;2023-08-07T02:17:53;0.70;;;0.70;;
16352;SDS011;8286;51.274;9.542;2023-08-07T02:20:20;0.87;;;0.50;;
16352;SDS011;8286;51.274;9.542;2023-08-07T02:22:46;1.07;;;0.70;;
16352;SDS011;8286;51.274;9.542;2023-08-07T02:25:13;0.70;;;0.70;;
16352;SDS011;8286;51.274;9.542;2023-08-07T02:27:39;0.60;;;0.60;;
16352;SDS011;8286;51.274;9.542;2023-08-07T02:30:06;0.70;;;0.67;;
16352;SDS011;8286;51.274;9.542;2023-08-07T02:32:34;1.23;;;0.70;;
16352;SDS011;8286;51.274;9.542;2023-08-07T02:35:01;1.60;;;0.60;;
16352;SDS011;8286;51.274;9.542;2023-08-07T02:37:27;2.30;;;0.70;;
16352;SDS011;8286;51.274;9.542;2023-08-07T02:39:54;0.60;;;0.60;;
16352;SDS011;8286;51.274;9.542;2023-08-07T02:42:20;0.50;;;0.50;;
16352;SDS011;8286;51.274;9.542;2023-08-07T02:44:47;0.70;;;0.70;;
16352;SDS011;8286;51.274;9.542;2023-08-07T02:47:13;0.70;;;0.70;;
16352;SDS011;8286;51.274;9.542;2023-08-07T02:49:41;0.70;;;0.70;;
16352;SDS011;8286;51.274;9.542;2023-08-07T02:52:08;0.50;;;0.50;;
16352;SDS011;8286;51.274;9.542;2023-08-07T02:54:34;0.90;;;0.53;;
16352;SDS011;8286;51.274;9.542;2023-08-07T02:57:01;0.60;;;0.60;;
16352;SDS011;8286;51.274;9.542;2023-08-07T02:59:27;1.40;;;1.33;;
16352;SDS011;8286;51.274;9.542;2023-08-07T03:01:54;1.80;;;0.50;;
16352;SDS011;8286;51.274;9.542;2023-08-07T03:04:21;0.53;;;0.53;;
16352;SDS011;8286;51.274;9.542;2023-08-07T03:06:49;2.70;;;1.40;;
16352;SDS011;8286;51.274;9.542;2023-08-07T03:09:15;0.77;;;0.77;;
16352;SDS011;8286;51.274;9.542;2023-08-07T03:11:41;0.63;;;0.63;;
16352;SDS011;8286;51.274;9.542;2023-08-07T03:14:08;1.07;;;1.07;;
16352;SDS011;8286;51.274;9.542;2023-08-07T03:16:34;0.53;;;0.53;;
16352;SDS011;8286;51.274;9.542;2023-08-07T03:19:01;0.80;;;0.80;;
16352;SDS011;8286;51.274;9.542;2023-08-07T03:21:27;0.90;;;0.90;;
16352;SDS011;8286;51.274;9.542;2023-08-07T03:23:55;0.80;;;0.80;;
16352;SDS011;8286;51.274;9.542;2023-08-07T03:26:22;1.70;;;1.10;;
16352;SDS011;8286;51.274;9.542;2023-08-07T03:28:48;0.70;;;0.70;;
16352;SDS011;8286;51.274;9.542;2023-08-07T03:31:15;1.13;;;0.80;;
16352;SDS011;8286;51.274;9.542;2023-08-07T03:33:42;0.70;;;0.70;;
16352;SDS011;8286;51.274;9.542;2023-08-07T03:36:09;5.00;;;0.90;;
16352;SDS011;8286;51.274;9.542;2023-08-07T03:38:35;0.77;;;0.77;;
16352;SDS011;8286;51.274;9.542;2023-08-07T03:41:03;0.87;;;0.87;;
16352;SDS011;8286;51.274;9.542;2023-08-07T03:43:30;0.77;;;0.77;;
16352;SDS011;8286;51.274;9.542;2023-08-07T03:45:56;0.70;;;0.70;;
16352;SDS011;8286;51.274;9.542;2023-08-07T03:48:23;0.90;;;0.90;;
16352;SDS011;8286;51.274;9.542;2023-08-07T03:50:50;1.67;;;0.70;;
16352;SDS011;8286;51.274;9.542;2023-08-07T03:53:16;0.70;;;0.70;;
16352;SDS011;8286;51.274;9.542;2023-08-07T03:55:43;0.83;;;0.80;;
16352;SDS011;8286;51.274;9.542;2023-08-07T03:58:11;3.13;;;0.93;;
16352;SDS011;8286;51.274;9.542;2023-08-07T04:00:38;1.83;;;0.90;;
16352;SDS011;8286;51.274;9.542;2023-08-07T04:03:04;0.80;;;0.80;;
16352;SDS011;8286;51.274;9.542;2023-08-07T04:05:32;2.17;;;1.10;;
16352;SDS011;8286;51.274;9.542;2023-08-07T04:07:59;1.17;;;0.70;;
16352;SDS011;8286;51.274;9.542;2023-08-07T04:10:25;2.27;;;0.63;;
16352;SDS011;8286;51.274;9.542;2023-08-07T04:12:52;1.83;;;0.60;;
16352;SDS011;8286;51.274;9.542;2023-08-07T04:15:20;0.70;;;0.70;;
16352;SDS011;8286;51.274;9.542;2023-08-07T04:17:46;1.00;;;0.80;;
16352;SDS011;8286;51.274;9.542;2023-08-07T04:20:13;0.50;;;0.50;;
16352;SDS011;8286;51.274;9.542;2023-08-07T04:22:39;1.20;;;0.53;;
16352;SDS011;8286;51.274;9.542;2023-08-07T04:25:06;0.67;;;0.57;;
16352;SDS011;8286;51.274;9.542;2023-08-07T04:27:33;0.40;;;0.40;;
16352;SDS011;8286;51.274;9.542;2023-08-07T04:29:59;2.13;;;0.47;;
16352;SDS011;8286;51.274;9.542;2023-08-07T04:32:27;0.97;;;0.57;;
16352;SDS011;8286;51.274;9.542;2023-08-07T04:34:54;1.03;;;0.60;;
16352;SDS011;8286;51.274;9.542;2023-08-07T04:37:20;0.40;;;0.40;;
16352;SDS011;8286;51.274;9.542;2023-08-07T04:39:47;3.67;;;0.67;;
16352;SDS011;8286;51.274;9.542;2023-08-07T04:42:14;0.40;;;0.40;;
16352;SDS011;8286;51.274;9.542;2023-08-07T04:44:40;0.67;;;0.60;;
16352;SDS011;8286;51.274;9.542;2023-08-07T04:47:07;0.33;;;0.33;;
16352;SDS011;8286;51.274;9.542;2023-08-07T04:49:35;0.50;;;0.50;;
16352;SDS011;8286;51.274;9.542;2023-08-07T04:52:01;0.40;;;0.40;;
16352;SDS011;8286;51.274;9.542;2023-08-07T04:54:28;1.60;;;0.50;;
16352;SDS011;8286;51.274;9.542;2023-08-07T04:56:54;0.60;;;0.60;;
16352;SDS011;8286;51.274;9.542;2023-08-07T04:59:21;1.47;;;0.90;;
16352;SDS011;8286;51.274;9.542;2023-08-07T05:01:47;0.53;;;0.53;;
16352;SDS011;8286;51.274;9.542;2023-08-07T05:04:14;0.93;;;0.80;;
16352;SDS011;8286;51.274;9.542;2023-08-07T05:06:41;2.93;;;0.47;;
16352;SDS011;8286;51.274;9.542;2023-08-07T05:09:08;1.23;;;0.40;;
16352;SDS011;8286;51.274;9.542;2023-08-07T05:11:34;1.37;;;0.50;;
16352;SDS011;8286;51.274;9.542;2023-08-07T05:14:01;0.30;;;0.30;;
16352;SDS011;8286;51.274;9.542;2023-08-07T05:16:28;0.47;;;0.47;;
16352;SDS011;8286;51.274;9.542;2023-08-07T05:18:55;0.57;;;0.57;;
16352;SDS011;8286;51.274;9.542;2023-08-07T05:21:21;1.33;;;0.50;;
16352;SDS011;8286;51.274;9.542;2023-08-07T05:23:49;1.20;;;0.50;;
16352;SDS011;8286;51.274;9.542;2023-08-07T05:26:18;0.30;;;0.30;;
16352;SDS011;8286;51.274;9.542;2023-08-07T05:28:44;0.40;;;0.40;;
16352;SDS011;8286;51.274;9.542;2023-08-07T05:31:11;1.20;;;0.30;;
16352;SDS011;8286;51.274;9.542;2023-08-07T05:33:38;0.47;;;0.33;;
16352;SDS011;8286;51.274;9.542;2023-08-07T05:36:04;0.33;;;0.30;;
16352;SDS011;8286;51.274;9.542;2023-08-07T05:38:31;1.40;;;0.50;;
16352;SDS011;8286;51.274;9.542;2023-08-07T05:40:59;0.30;;;0.30;;
16352;SDS011;8286;51.274;9.542;2023-08-07T05:43:26;0.57;;;0.40;;
16352;SDS011;8286;51.274;9.542;2023-08-07T05:45:52;0.30;;;0.30;;
16352;SDS011;8286;51.274;9.542;2023-08-07T05:48:19;1.70;;;0.40;;
16352;SDS011;8286;51.274;9.542;2023-08-07T05:50:46;0.50;;;0.43;;
16352;SDS011;8286;51.274;9.542;2023-08-07T05:53:12;1.40;;;0.40;;
16352;SDS011;8286;51.274;9.542;2023-08-07T05:55:39;0.30;;;0.30;;
16352;SDS011;8286;51.274;9.542;2023-08-07T05:58:08;0.30;;;0.30;;
16352;SDS011;8286;51.274;9.542;2023-08-07T06:00:34;2.37;;;0.60;;
16352;SDS011;8286;51.274;9.542;2023-08-07T06:03:01;0.50;;;0.50;;
16352;SDS011;8286;51.274;9.542;2023-08-07T06:05:27;0.30;;;0.30;;
16352;SDS011;8286;51.274;9.542;2023-08-07T06:07:55;0.43;;;0.43;;
16352;SDS011;8286;51.274;9.542;2023-08-07T06:10:21;1.27;;;0.67;;
16352;SDS011;8286;51.274;9.542;2023-08-07T06:12:48;0.30;;;0.30;;
16352;SDS011;8286;51.274;9.542;2023-08-07T06:15:16;0.30;;;0.30;;
16352;SDS011;8286;51.274;9.542;2023-08-07T06:17:42;0.43;;;0.30;;
16352;SDS011;8286;51.274;9.542;2023-08-07T06:20:09;0.37;;;0.37;;
16352;SDS011;8286;51.274;9.542;2023-08-07T06:22:36;0.30;;;0.30;;
16352;SDS011;8286;51.274;9.542;2023-08-07T06:25:03;0.57;;;0.57;;
16352;SDS011;8286;51.274;9.542;2023-08-07T06:27:30;1.00;;;0.80;;
16352;SDS011;8286;51.274;9.542;2023-08-07T06:29:57;0.50;;;0.50;;
16352;SDS011;8286;51.274;9.542;2023-08-07T06:32:25;0.50;;;0.50;;
16352;SDS011;8286;51.274;9.542;2023-08-07T06:34:52;1.33;;;0.50;;
16352;SDS011;8286;51.274;9.542;2023-08-07T06:37:19;0.83;;;0.57;;
16352;SDS011;8286;51.274;9.542;2023-08-07T06:39:46;0.60;;;0.60;;
16352;SDS011;8286;51.274;9.542;2023-08-07T06:42:12;0.53;;;0.53;;
16352;SDS011;8286;51.274;9.542;2023-08-07T06:44:39;2.23;;;0.60;;
16352;SDS011;8286;51.274;9.542;2023-08-07T06:47:06;0.60;;;0.60;;
16352;SDS011;8286;51.274;9.542;2023-08-07T06:49:34;0.53;;;0.50;;
16352;SDS011;8286;51.274;9.542;2023-08-07T06:52:01;1.10;;;0.80;;
16352;SDS011;8286;51.274;9.542;2023-08-07T06:54:28;0.97;;;0.60;;
16352;SDS011;8286;51.274;9.542;2023-08-07T06:56:54;0.63;;;0.63;;
16352;SDS011;8286;51.274;9.542;2023-08-07T06:59:21;1.60;;;0.60;;
16352;SDS011;8286;51.274;9.542;2023-08-07T07:01:48;0.53;;;0.53;;
16352;SDS011;8286;51.274;9.542;2023-08-07T07:04:15;0.60;;;0.60;;
16352;SDS011;8286;51.274;9.542;2023-08-07T07:06:43;0.60;;;0.60;;
16352;SDS011;8286;51.274;9.542;2023-08-07T07:09:09;0.60;;;0.60;;
16352;SDS011;8286;51.274;9.542;2023-08-07T07:11:41;0.50;;;0.50;;
16352;SDS011;8286;51.274;9.542;2023-08-07T07:14:07;0.40;;;0.40;;
16352;SDS011;8286;51.274;9.542;2023-08-07T07:16:34;0.60;;;0.60;;
16352;SDS011;8286;51.274;9.542;2023-08-07T07:19:01;1.13;;;0.70;;
16352;SDS011;8286;51.274;9.542;2023-08-07T07:21:27;0.50;;;0.50;;
16352;SDS011;8286;51.274;9.542;2023-08-07T07:23:55;0.47;;;0.47;;
16352;SDS011;8286;51.274;9.542;2023-08-07T07:26:22;0.50;;;0.50;;
16352;SDS011;8286;51.274;9.542;2023-08-07T07:28:48;0.57;;;0.57;;
16352;SDS011;8286;51.274;9.542;2023-08-07T07:31:16;0.40;;;0.40;;
16352;SDS011;8286;51.274;9.542;2023-08-07T07:33:42;0.40;;;0.40;;
16352;SDS011;8286;51.274;9.542;2023-08-07T07:36:13;0.83;;;0.83;;
16352;SDS011;8286;51.274;9.542;2023-08-07T07:38:40;0.33;;;0.33;;
16352;SDS011;8286;51.274;9.542;2023-08-07T07:41:08;0.77;;;0.50;;
16352;SDS011;8286;51.274;9.542;2023-08-07T07:43:36;0.83;;;0.50;;
16352;SDS011;8286;51.274;9.542;2023-08-07T07:46:03;0.50;;;0.50;;
16352;SDS011;8286;51.274;9.542;2023-08-07T07:48:29;0.37;;;0.30;;
16352;SDS011;8286;51.274;9.542;2023-08-07T07:50:58;4.10;;;1.00;;
16352;SDS011;8286;51.274;9.542;2023-08-07T07:53:25;0.40;;;0.40;;
16352;SDS011;8286;51.274;9.542;2023-08-07T07:55:51;2.07;;;0.60;;
16352;SDS011;8286;51.274;9.542;2023-08-07T07:58:19;1.50;;;0.50;;
16352;SDS011;8286;51.274;9.542;2023-08-07T08:00:46;0.60;;;0.60;;
16352;SDS011;8286;51.274;9.542;2023-08-07T08:03:13;0.30;;;0.30;;
16352;SDS011;8286;51.274;9.542;2023-08-07T08:05:39;0.60;;;0.40;;
16352;SDS011;8286;51.274;9.542;2023-08-07T08:08:06;0.50;;;0.30;;
16352;SDS011;8286;51.274;9.542;2023-08-07T08:10:33;0.65;;;0.40;;
16352;SDS011;8286;51.274;9.542;2023-08-07T08:13:00;0.40;;;0.40;;
16352;SDS011;8286;51.274;9.542;2023-08-07T08:15:29;0.43;;;0.43;;
16352;SDS011;8286;51.274;9.542;2023-08-07T08:17:56;0.50;;;0.50;;
16352;SDS011;8286;51.274;9.542;2023-08-07T08:20:22;0.30;;;0.30;;
16352;SDS011;8286;51.274;9.542;2023-08-07T08:22:49;0.82;;;0.60;;
16352;SDS011;8286;51.274;9.542;2023-08-07T08:25:16;0.30;;;0.30;;
16352;SDS011;8286;51.274;9.542;2023-08-07T08:27:43;0.20;;;0.20;;
16352;SDS011;8286;51.274;9.542;2023-08-07T08:30:09;0.30;;;0.30;;
16352;SDS011;8286;51.274;9.542;2023-08-07T08:32:37;0.40;;;0.40;;
16352;SDS011;8286;51.274;9.542;2023-08-07T08:35:05;2.08;;;0.75;;
16352;SDS011;8286;51.274;9.542;2023-08-07T08:37:32;0.30;;;0.30;;
16352;SDS011;8286;51.274;9.542;2023-08-07T08:39:58;0.30;;;0.30;;
16352;SDS011;8286;51.274;9.542;2023-08-07T08:42:25;0.63;;;0.60;;
16352;SDS011;8286;51.274;9.542;2023-08-07T08:44:53;1.77;;;0.40;;
16352;SDS011;8286;51.274;9.542;2023-08-07T08:47:20;0.50;;;0.50;;
16352;SDS011;8286;51.274;9.542;2023-08-07T08:49:51;1.15;;;0.60;;
16352;SDS011;8286;51.274;9.542;2023-08-07T08:52:21;0.50;;;0.50;;
16352;SDS011;8286;51.274;9.542;2023-08-07T08:54:47;0.57;;;0.57;;
16352;SDS011;8286;51.274;9.542;2023-08-07T08:57:14;0.35;;;0.35;;
16352;SDS011;8286;51.274;9.542;2023-08-07T08:59:41;0.98;;;0.70;;
16352;SDS011;8286;51.274;9.542;2023-08-07T09:02:08;1.17;;;0.40;;
16352;SDS011;8286;51.274;9.542;2023-08-07T09:04:35;0.40;;;0.40;;
16352;SDS011;8286;51.274;9.542;2023-08-07T09:07:03;1.55;;;0.60;;
16352;SDS011;8286;51.274;9.542;2023-08-07T09:09:31;0.50;;;0.50;;
16352;SDS011;8286;51.274;9.542;2023-08-07T09:11:58;1.13;;;0.80;;
16352;SDS011;8286;51.274;9.542;2023-08-07T09:14:26;0.90;;;0.90;;
16352;SDS011;8286;51.274;9.542;2023-08-07T09:16:55;0.93;;;0.93;;
16352;SDS011;8286;51.274;9.542;2023-08-07T09:19:24;0.85;;;0.68;;
16352;SDS011;8286;51.274;9.542;2023-08-07T09:21:51;0.95;;;0.95;;
16352;SDS011;8286;51.274;9.542;2023-08-07T09:24:19;0.80;;;0.80;;
16352;SDS011;8286;51.274;9.542;2023-08-07T09:26:47;3.20;;;1.25;;
16352;SDS011;8286;51.274;9.542;2023-08-07T09:29:14;1.50;;;0.85;;
16352;SDS011;8286;51.274;9.542;2023-08-07T09:31:42;3.08;;;0.75;;
16352;SDS011;8286;51.274;9.542;2023-08-07T09:34:09;0.90;;;0.90;;
16352;SDS011;8286;51.274;9.542;2023-08-07T09:36:37;0.77;;;0.77;;
16352;SDS011;8286;51.274;9.542;2023-08-07T09:39:04;1.15;;;1.00;;
16352;SDS011;8286;51.274;9.542;2023-08-07T09:41:32;1.17;;;1.17;;
16352;SDS011;8286;51.274;9.542;2023-08-07T09:44:00;1.00;;;1.00;;
16352;SDS011;8286;51.274;9.542;2023-08-07T09:46:33;1.13;;;1.00;;
16352;SDS011;8286;51.274;9.542;2023-08-07T09:49:07;1.00;;;1.00;;
16352;SDS011;8286;51.274;9.542;2023-08-07T09:51:40;1.48;;;1.25;;
16352;SDS011;8286;51.274;9.542;2023-08-07T09:54:07;1.63;;;1.52;;
16352;SDS011;8286;51.274;9.542;2023-08-07T09:56:36;1.58;;;1.10;;
16352;SDS011;8286;51.274;9.542;2023-08-07T09:59:03;1.30;;;1.30;;
16352;SDS011;8286;51.274;9.542;2023-08-07T10:01:29;1.42;;;1.33;;
16352;SDS011;8286;51.274;9.542;2023-08-07T10:03:56;3.47;;;1.63;;
16352;SDS011;8286;51.274;9.542;2023-08-07T10:06:23;1.38;;;1.23;;
16352;SDS011;8286;51.274;9.542;2023-08-07T10:08:49;1.50;;;1.30;;
16352;SDS011;8286;51.274;9.542;2023-08-07T10:11:16;1.17;;;1.08;;
16352;SDS011;8286;51.274;9.542;2023-08-07T10:13:45;1.60;;;1.50;;
16352;SDS011;8286;51.274;9.542;2023-08-07T10:16:11;1.38;;;1.27;;
16352;SDS011;8286;51.274;9.542;2023-08-07T10:18:38;1.60;;;1.48;;
16352;SDS011;8286;51.274;9.542;2023-08-07T10:21:05;2.03;;;1.40;;
16352;SDS011;8286;51.274;9.542;2023-08-07T10:23:32;1.53;;;1.37;;
16352;SDS011;8286;51.274;9.542;2023-08-07T10:26:01;1.27;;;1.20;;
16352;SDS011;8286;51.274;9.542;2023-08-07T10:28:28;2.35;;;1.48;;
16352;SDS011;8286;51.274;9.542;2023-08-07T10:30:56;3.25;;;1.50;;
16352;SDS011;8286;51.274;9.542;2023-08-07T10:33:23;1.65;;;1.48;;
16352;SDS011;8286;51.274;9.542;2023-08-07T10:35:51;1.65;;;1.50;;
16352;SDS011;8286;51.274;9.542;2023-08-07T10:38:19;1.45;;;1.35;;
16352;SDS011;8286;51.274;9.542;2023-08-07T10:43:37;2.03;;;1.40;;
16352;SDS011;8286;51.274;9.542;2023-08-07T10:46:05;1.60;;;1.50;;
16352;SDS011;8286;51.274;9.542;2023-08-07T10:48:39;3.85;;;2.05;;
16352;SDS011;8286;51.274;9.542;2023-08-07T10:51:06;1.38;;;1.30;;
16352;SDS011;8286;51.274;9.542;2023-08-07T10:53:34;4.05;;;2.10;;
16352;SDS011;8286;51.274;9.542;2023-08-07T10:56:01;7.65;;;1.70;;
16352;SDS011;8286;51.274;9.542;2023-08-07T10:58:29;5.00;;;2.17;;
16352;SDS011;8286;51.274;9.542;2023-08-07T11:01:16;5.50;;;1.90;;
16352;SDS011;8286;51.274;9.542;2023-08-07T11:03:48;2.28;;;1.90;;
16352;SDS011;8286;51.274;9.542;2023-08-07T11:06:16;1.70;;;1.60;;
16352;SDS011;8286;51.274;9.542;2023-08-07T11:08:43;2.35;;;1.33;;
16352;SDS011;8286;51.274;9.542;2023-08-07T11:11:10;1.55;;;1.42;;
16352;SDS011;8286;51.274;9.542;2023-08-07T11:13:36;2.08;;;1.83;;
16352;SDS011;8286;51.274;9.542;2023-08-07T11:16:03;2.38;;;1.67;;
16352;SDS011;8286;51.274;9.542;2023-08-07T11:18:31;1.48;;;1.27;;
16352;SDS011;8286;51.274;9.542;2023-08-07T11:20:58;3.00;;;1.35;;
16352;SDS011;8286;51.274;9.542;2023-08-07T11:23:26;1.45;;;1.35;;
16352;SDS011;8286;51.274;9.542;2023-08-07T11:25:53;1.95;;;1.20;;
16352;SDS011;8286;51.274;9.542;2023-08-07T11:28:21;1.35;;;1.25;;
16352;SDS011;8286;51.274;9.542;2023-08-07T11:30:49;3.67;;;1.67;;
16352;SDS011;8286;51.274;9.542;2023-08-07T11:33:16;1.30;;;1.20;;
16352;SDS011;8286;51.274;9.542;2023-08-07T11:35:45;2.08;;;1.30;;
16352;SDS011;8286;51.274;9.542;2023-08-07T11:38:11;1.65;;;1.27;;
16352;SDS011;8286;51.274;9.542;2023-08-07T11:40:38;1.70;;;1.20;;
16352;SDS011;8286;51.274;9.542;2023-08-07T11:43:04;1.92;;;1.15;;
16352;SDS011;8286;51.274;9.542;2023-08-07T11:45:31;0.82;;;0.82;;
16352;SDS011;8286;51.274;9.542;2023-08-07T11:47:57;3.80;;;1.20;;
16352;SDS011;8286;51.274;9.542;2023-08-07T11:50:24;1.75;;;0.98;;
16352;SDS011;8286;51.274;9.542;2023-08-07T11:52:52;2.03;;;1.00;;
16352;SDS011;8286;51.274;9.542;2023-08-07T11:55:18;1.85;;;1.30;;
16352;SDS011;8286;51.274;9.542;2023-08-07T11:57:45;1.40;;;1.17;;
16352;SDS011;8286;51.274;9.542;2023-08-07T12:00:12;2.55;;;1.38;;
16352;SDS011;8286;51.274;9.542;2023-08-07T12:02:41;3.85;;;1.63;;
16352;SDS011;8286;51.274;9.542;2023-08-07T12:05:08;3.85;;;1.58;;
16352;SDS011;8286;51.274;9.542;2023-08-07T12:07:37;1.77;;;1.30;;
16352;SDS011;8286;51.274;9.542;2023-08-07T12:10:06;3.92;;;1.33;;
16352;SDS011;8286;51.274;9.542;2023-08-07T12:12:33;5.18;;;1.30;;
16352;SDS011;8286;51.274;9.542;2023-08-07T12:15:00;1.08;;;1.08;;
16352;SDS011;8286;51.274;9.542;2023-08-07T12:17:30;2.50;;;1.30;;
16352;SDS011;8286;51.274;9.542;2023-08-07T12:19:57;4.60;;;1.33;;
16352;SDS011;8286;51.274;9.542;2023-08-07T12:22:24;2.10;;;1.40;;
16352;SDS011;8286;51.274;9.542;2023-08-07T12:24:53;1.30;;;1.20;;
16352;SDS011;8286;51.274;9.542;2023-08-07T12:27:21;2.65;;;1.67;;
16352;SDS011;8286;51.274;9.542;2023-08-07T12:29:48;3.87;;;1.67;;
16352;SDS011;8286;51.274;9.542;2023-08-07T12:32:14;3.42;;;1.67;;
16352;SDS011;8286;51.274;9.542;2023-08-07T12:34:41;3.38;;;1.52;;
16352;SDS011;8286;51.274;9.542;2023-08-07T12:37:08;6.43;;;1.90;;
16352;SDS011;8286;51.274;9.542;2023-08-07T12:39:34;4.10;;;1.50;;
16352;SDS011;8286;51.274;9.542;2023-08-07T12:42:01;2.65;;;1.55;;
16352;SDS011;8286;51.274;9.542;2023-08-07T12:44:31;4.65;;;1.75;;
16352;SDS011;8286;51.274;9.542;2023-08-07T12:46:58;2.78;;;1.90;;
16352;SDS011;8286;51.274;9.542;2023-08-07T12:49:24;2.92;;;1.50;;
16352;SDS011;8286;51.274;9.542;2023-08-07T12:51:51;4.75;;;2.08;;
16352;SDS011;8286;51.274;9.542;2023-08-07T12:54:18;6.60;;;1.42;;
16352;SDS011;8286;51.274;9.542;2023-08-07T12:56:45;7.13;;;1.85;;
16352;SDS011;8286;51.274;9.542;2023-08-07T12:59:11;4.72;;;1.70;;
16352;SDS011;8286;51.274;9.542;2023-08-07T13:01:39;3.97;;;1.70;;
16352;SDS011;8286;51.274;9.542;2023-08-07T13:04:06;3.45;;;1.80;;
16352;SDS011;8286;51.274;9.542;2023-08-07T13:06:33;4.82;;;1.52;;
16352;SDS011;8286;51.274;9.542;2023-08-07T13:09:00;3.38;;;1.73;;
16352;SDS011;8286;51.274;9.542;2023-08-07T13:11:26;3.38;;;1.92;;
16352;SDS011;8286;51.274;9.542;2023-08-07T13:13:53;5.45;;;1.80;;
16352;SDS011;8286;51.274;9.542;2023-08-07T13:16:20;2.80;;;1.60;;
16352;SDS011;8286;51.274;9.542;2023-08-07T13:18:48;5.40;;;1.70;;
16352;SDS011;8286;51.274;9.542;2023-08-07T13:21:14;2.65;;;1.70;;
16352;SDS011;8286;51.274;9.542;2023-08-07T13:23:41;5.13;;;1.45;;
16352;SDS011;8286;51.274;9.542;2023-08-07T13:26:07;5.50;;;1.83;;
16352;SDS011;8286;51.274;9.542;2023-08-07T13:28:34;1.75;;;1.65;;
16352;SDS011;8286;51.274;9.542;2023-08-07T13:31:00;5.65;;;1.73;;
16352;SDS011;8286;51.274;9.542;2023-08-07T13:33:27;5.50;;;2.05;;
16352;SDS011;8286;51.274;9.542;2023-08-07T13:35:55;6.93;;;1.92;;
16352;SDS011;8286;51.274;9.542;2023-08-07T13:38:22;3.67;;;1.83;;
16352;SDS011;8286;51.274;9.542;2023-08-07T13:40:48;3.38;;;1.52;;
16352;SDS011;8286;51.274;9.542;2023-08-07T13:43:16;4.80;;;1.60;;
16352;SDS011;8286;51.274;9.542;2023-08-07T13:45:42;3.13;;;1.70;;
16352;SDS011;8286;51.274;9.542;2023-08-07T13:48:09;4.07;;;1.70;;
16352;SDS011;8286;51.274;9.542;2023-08-07T13:50:36;5.32;;;2.03;;
16352;SDS011;8286;51.274;9.542;2023-08-07T13:53:05;3.25;;;1.55;;
16352;SDS011;8286;51.274;9.542;2023-08-07T13:55:31;4.53;;;1.70;;
16352;SDS011;8286;51.274;9.542;2023-08-07T13:57:58;5.43;;;1.75;;
16352;SDS011;8286;51.274;9.542;2023-08-07T14:00:25;2.95;;;1.75;;
16352;SDS011;8286;51.274;9.542;2023-08-07T14:02:51;3.33;;;2.00;;
16352;SDS011;8286;51.274;9.542;2023-08-07T14:05:18;4.10;;;1.75;;
16352;SDS011;8286;51.274;9.542;2023-08-07T14:07:44;3.00;;;1.60;;
16352;SDS011;8286;51.274;9.542;2023-08-07T14:10:12;3.13;;;1.38;;
16352;SDS011;8286;51.274;9.542;2023-08-07T14:12:39;5.45;;;1.70;;
16352;SDS011;8286;51.274;9.542;2023-08-07T14:15:06;3.42;;;1.58;;
16352;SDS011;8286;51.274;9.542;2023-08-07T14:17:33;4.07;;;1.27;;
16352;SDS011;8286;51.274;9.542;2023-08-07T14:19:59;6.28;;;1.73;;
16352;SDS011;8286;51.274;9.542;2023-08-07T14:22:26;2.65;;;1.50;;
16352;SDS011;8286;51.274;9.542;2023-08-07T14:24:52;3.05;;;1.60;;
16352;SDS011;8286;51.274;9.542;2023-08-07T14:27:20;2.92;;;1.40;;
16352;SDS011;8286;51.274;9.542;2023-08-07T14:29:47;5.60;;;1.73;;
16352;SDS011;8286;51.274;9.542;2023-08-07T14:32:13;6.03;;;1.90;;
16352;SDS011;8286;51.274;9.542;2023-08-07T14:34:40;7.35;;;1.83;;
16352;SDS011;8286;51.274;9.542;2023-08-07T14:37:07;5.90;;;1.50;;
16352;SDS011;8286;51.274;9.542;2023-08-07T14:39:33;3.95;;;1.65;;
16352;SDS011;8286;51.274;9.542;2023-08-07T14:42:00;1.67;;;0.95;;
16352;SDS011;8286;51.274;9.542;2023-08-07T14:44:28;6.15;;;1.42;;
16352;SDS011;8286;51.274;9.542;2023-08-07T14:46:54;2.72;;;1.58;;
16352;SDS011;8286;51.274;9.542;2023-08-07T14:49:21;2.47;;;1.40;;
16352;SDS011;8286;51.274;9.542;2023-08-07T14:51:48;5.75;;;1.60;;
16352;SDS011;8286;51.274;9.542;2023-08-07T14:54:14;1.67;;;1.45;;
16352;SDS011;8286;51.274;9.542;2023-08-07T14:56:41;1.33;;;1.13;;
16352;SDS011;8286;51.274;9.542;2023-08-07T14:59:08;2.10;;;1.48;;
16352;SDS011;8286;51.274;9.542;2023-08-07T15:01:36;3.90;;;1.50;;